Flight Track Log - Related Links

Times and Time Zones

All times are in EDT time to prevent confusion due to time zone crossing. See the FLG3800 flight status page for this flight to view local times or setup timezone preferences in your user account.

Time Position Orientation Groundspeed Altitude Reporting Facility
EDT Latitude Longitude Course Direction KTS MPH feet Rate Location/Type
Sat 08:04:57 AM 41.7083 -86.3625 73° East 161 185 2,200  Level Chicago Center
Sat 08:05:58 AM 41.7503 -86.3644 358° North 219 252 4,500 2,066 Climbing Chicago Center
Sat 08:06:59 AM 41.7697 -86.2767 73° East 244 281 6,400 1,869 Climbing Chicago Center
Sat 08:07:00 AM 41.7667 -86.0256 90° East  Level FlightAware Approximate
Sat 08:08:00 AM 41.7849 -85.9274 71° East  Level FlightAware Approximate
Sat 08:08:00 AM 41.7908 -86.1700 75° East 288 331 8,300  Level Chicago Center
Sat 08:09:00 AM 41.8091 -85.8304 71° East  Level FlightAware Approximate
Sat 08:09:02 AM 41.8147 -86.0511 75° East 325 374 10,000  Level Chicago Center
Sat 08:10:00 AM 41.8346 -85.7225 73° East  Level FlightAware Approximate
Sat 08:10:03 AM 41.8464 -85.8931 75° East 365 420 11,800  Level Chicago Center
Sat 08:11:04 AM 41.8747 -85.7506 75° East 390 449 13,300 1,073 Climbing Chicago Center
Sat 08:12:06 AM 41.9039 -85.6006 75° East 409 471 14,000 829 Climbing Chicago Center
Sat 08:13:07 AM 41.9336 -85.4414 76° East 430 495 15,000 492 Climbing Chicago Center
Sat 08:14:08 AM 41.9647 -85.2797 75° East 441 507 15,000 -49 Level Chicago Center
Sat 08:15:09 AM 41.9614 -85.1075 91° East 467 537 14,900  Descending Chicago Center
Sat 08:16:11 AM 41.9406 -84.9422 100° East 451 519 15,000 -390 Climbing Chicago Center
Sat 08:17:12 AM 41.9194 -84.7708 99° East 462 532 14,100 -934 Descending Chicago Center
Sat 08:18:13 AM 41.8983 -84.6008 99° East 461 531 13,100 -984 Descending Chicago Center
Sat 08:19:14 AM 41.8761 -84.4356 100° East 455 524 12,100 -635 Descending Chicago Center
Sat 08:19:57 AM 41.8578 -84.3053 101° East 444 511 12,000 -48 Descending Cleveland Center
Sat 08:21:20 AM 41.8311 -84.0975 100° East 443 510 12,000  Level Cleveland Center
Sat 08:22:20 AM 41.8789 -83.9606 65° Northeast 393 452 12,000  Level Cleveland Center
Sat 08:23:20 AM 41.9633 -83.8561 43° Northeast 378 435 12,000  Level Cleveland Center
Sat 08:24:20 AM 42.0475 -83.7486 43° Northeast 394 453 12,000  Level Cleveland Center
Sat 08:25:31 AM 42.1517 -83.6053 46° Northeast 426 490 12,000 -50 Level Cleveland Center
Sat 08:26:20 AM 42.1653 -83.4742 82° East 405 466 11,900 -55 Descending Cleveland Center
Sat 08:27:20 AM 42.1728 -83.3400 86° East 375 432 11,900 -350 Level Cleveland Center
Sat 08:28:20 AM 42.1775 -83.2283 87° East 323 372 11,200 -1,200 Descending Cleveland Center
Sat 08:29:20 AM 42.2314 -83.1547 45° Northeast 278 320 9,500 -1,941 Descending Cleveland Center
Sat 08:30:36 AM 42.3114 -83.1186 18° North 232 267 6,800 -1,888 Descending Cleveland Center
Sat 08:31:43 AM 42.3739 -83.1239 356° North 220 253 5,000 -1,230 Descending Cleveland Center
Sat 08:32:38 AM 42.3722 -83.1969 268° West 212 244 4,300 -887 Descending Cleveland Center
Sat 08:33:38 AM 42.3375 -83.2489 228° Southwest 182 209 3,300 -1,000 Descending Cleveland Center

Login

Don't have an account? Register now (free) for customized features, flight alerts, and more!